createdAt,value
2022-10-23T00:02:26.659Z,100608.02
2022-10-23T00:04:57.454Z,100605.56
2022-10-23T00:07:28.224Z,100601.27
2022-10-23T00:09:58.897Z,100598.80
2022-10-23T00:12:29.684Z,100599.30
2022-10-23T00:15:00.365Z,100600.90
2022-10-23T00:17:32.748Z,100602.85
2022-10-23T00:20:04.268Z,100600.97
2022-10-23T00:22:35.343Z,100604.33
2022-10-23T00:25:07.855Z,100602.88
2022-10-23T00:27:38.678Z,100601.64
2022-10-23T00:30:11.900Z,100598.56
2022-10-23T00:32:42.491Z,100594.61
2022-10-23T00:35:14.397Z,100592.69
2022-10-23T00:37:45.258Z,100589.32
2022-10-23T00:40:16.540Z,100592.17
2022-10-23T00:42:47.812Z,100588.92
2022-10-23T00:45:26.473Z,100590.19
2022-10-23T00:47:57.808Z,100583.30
2022-10-23T00:50:32.180Z,100586.83
2022-10-23T00:53:05.490Z,100588.52
2022-10-23T00:55:38.336Z,100590.73
2022-10-23T00:58:09.998Z,100595.46
2022-10-23T01:00:48.663Z,100594.17
2022-10-23T01:03:18.895Z,100594.69
2022-10-23T01:05:55.204Z,100595.13
2022-10-23T01:08:34.291Z,100593.45
2022-10-23T01:11:11.702Z,100595.85
2022-10-23T01:13:50.838Z,100591.66
2022-10-23T01:16:27.995Z,100597.34
2022-10-23T01:19:06.399Z,100595.73
2022-10-23T01:21:48.227Z,100594.95
2022-10-23T01:24:37.472Z,100596.30
2022-10-23T01:27:29.611Z,100593.60
2022-10-23T01:30:07.337Z,100594.82
2022-10-23T01:32:49.769Z,100596.77
2022-10-23T01:35:25.722Z,100595.91
2022-10-23T01:38:13.151Z,100597.52
2022-10-23T01:40:49.991Z,100591.73
2022-10-23T01:43:24.940Z,100592.86
2022-10-23T01:46:02.103Z,100591.59
2022-10-23T01:48:35.771Z,100593.90
2022-10-23T01:51:10.104Z,100596.14
2022-10-23T01:53:43.521Z,100599.39
2022-10-23T01:56:19.617Z,100597.78
2022-10-23T01:58:53.765Z,100599.59
2022-10-23T02:01:29.073Z,100600.98
2022-10-23T02:04:01.297Z,100596.69
2022-10-23T02:06:32.838Z,100597.62
2022-10-23T02:09:04.365Z,100596.71
2022-10-23T02:11:40.703Z,100589.05
2022-10-23T02:14:19.875Z,100581.40
2022-10-23T02:16:54.701Z,100583.92
2022-10-23T02:19:31.056Z,100582.02
2022-10-23T02:22:13.869Z,100586.45
2022-10-23T02:24:50.314Z,100580.95
2022-10-23T02:27:26.071Z,100580.91
2022-10-23T02:30:07.160Z,100580.24
2022-10-23T02:32:42.602Z,100576.83
2022-10-23T02:35:15.983Z,100571.10
2022-10-23T02:37:53.071Z,100571.59
2022-10-23T02:40:33.209Z,100572.14
2022-10-23T02:43:09.592Z,100569.79
2022-10-23T02:45:47.959Z,100571.66
2022-10-23T02:48:23.844Z,100568.64
2022-10-23T02:51:03.728Z,100567.39
2022-10-23T02:53:45.143Z,100564.25
2022-10-23T02:56:29.481Z,100573.56
2022-10-23T02:59:06.333Z,100572.00
2022-10-23T03:01:42.193Z,100571.71
2022-10-23T03:04:14.979Z,100571.27
2022-10-23T03:06:44.149Z,100572.91
2022-10-23T03:09:19.031Z,100572.54
2022-10-23T03:11:49.842Z,100572.11
2022-10-23T03:14:20.864Z,100570.67
2022-10-23T03:16:51.532Z,100567.21
2022-10-23T03:19:22.318Z,100563.66
2022-10-23T03:21:53.053Z,100566.30
2022-10-23T03:24:24.724Z,100570.52
2022-10-23T03:26:56.160Z,100574.70
2022-10-23T03:29:33.344Z,100574.23
2022-10-23T03:32:04.030Z,100572.73
2022-10-23T03:34:34.731Z,100572.30
2022-10-23T03:37:07.631Z,100565.70
2022-10-23T03:39:38.363Z,100564.73
2022-10-23T03:42:09.097Z,100569.65
2022-10-23T03:44:39.773Z,100571.44
2022-10-23T03:47:12.029Z,100571.73
2022-10-23T03:49:42.882Z,100569.84
2022-10-23T03:52:13.909Z,100573.39
2022-10-23T03:54:44.764Z,100569.91
2022-10-23T03:57:15.696Z,100567.85
2022-10-23T03:59:53.529Z,100567.21
2022-10-23T04:02:24.332Z,100569.58
2022-10-23T04:04:55.979Z,100567.67
2022-10-23T04:07:26.830Z,100574.02
2022-10-23T04:09:57.969Z,100577.38
2022-10-23T04:12:28.576Z,100575.54
2022-10-23T04:14:59.199Z,100570.73
2022-10-23T04:17:30.397Z,100564.73
2022-10-23T04:20:01.162Z,100563.81
2022-10-23T04:22:31.924Z,100567.86
2022-10-23T04:25:02.575Z,100567.92
2022-10-23T04:27:35.067Z,100560.69
2022-10-23T04:30:06.845Z,100557.81
2022-10-23T04:32:37.728Z,100558.16
2022-10-23T04:35:10.326Z,100561.38
2022-10-23T04:37:41.203Z,100563.35
2022-10-23T04:40:13.325Z,100568.42
2022-10-23T04:42:44.565Z,100570.75
2022-10-23T04:45:15.761Z,100567.39
2022-10-23T04:47:46.464Z,100562.27
2022-10-23T04:50:17.957Z,100562.65
2022-10-23T04:53:07.459Z,100561.95
2022-10-23T04:55:59.612Z,100563.64
2022-10-23T04:58:53.596Z,100567.91
2022-10-23T05:01:25.948Z,100573.70
2022-10-23T05:03:57.409Z,100571.21
2022-10-23T05:06:28.104Z,100571.98
2022-10-23T05:09:15.204Z,100574.34
2022-10-23T05:12:03.053Z,100569.91
2022-10-23T05:14:34.125Z,100560.35
2022-10-23T05:17:08.967Z,100565.36
2022-10-23T05:19:44.862Z,100567.13
2022-10-23T05:22:16.473Z,100564.59
2022-10-23T05:24:52.937Z,100569.20
2022-10-23T05:27:27.307Z,100575.30
2022-10-23T05:30:01.357Z,100573.04
2022-10-23T05:32:35.892Z,100570.73
2022-10-23T05:35:08.394Z,100571.11
2022-10-23T05:37:41.067Z,100571.77
2022-10-23T05:40:16.674Z,100570.44
2022-10-23T05:42:48.504Z,100570.01
2022-10-23T05:45:22.482Z,100564.45
2022-10-23T05:48:29.846Z,100562.66
2022-10-23T05:51:21.152Z,100558.77
2022-10-23T05:54:02.778Z,100556.54
2022-10-23T05:56:41.570Z,100555.73
2022-10-23T05:59:32.464Z,100552.95
2022-10-23T06:02:26.595Z,100553.30
2022-10-23T06:05:01.058Z,100557.13
2022-10-23T06:07:40.705Z,100562.95
2022-10-23T06:10:12.354Z,100567.52
2022-10-23T06:12:45.210Z,100564.05
2022-10-23T06:15:19.329Z,100561.48
2022-10-23T06:18:16.247Z,100568.27
2022-10-23T06:20:56.330Z,100565.78
2022-10-23T06:23:31.256Z,100567.20
2022-10-23T06:26:25.164Z,100564.30
2022-10-23T06:29:07.529Z,100564.76
2022-10-23T06:31:38.475Z,100561.05
2022-10-23T06:34:12.421Z,100565.01
2022-10-23T06:36:43.764Z,100562.33
2022-10-23T06:39:29.827Z,100566.23
2022-10-23T06:42:16.781Z,100570.03
2022-10-23T06:45:03.363Z,100570.95
2022-10-23T06:47:57.465Z,100574.23
2022-10-23T06:50:47.109Z,100577.64
2022-10-23T06:53:21.058Z,100579.44
2022-10-23T06:55:59.853Z,100577.05
2022-10-23T06:58:31.275Z,100581.45
2022-10-23T07:01:08.296Z,100577.64
2022-10-23T07:03:39.503Z,100576.46
2022-10-23T07:06:12.701Z,100576.23
2022-10-23T07:08:43.556Z,100574.88
2022-10-23T07:11:32.047Z,100576.27
2022-10-23T07:14:02.884Z,100572.81
2022-10-23T07:16:34.870Z,100573.02
2022-10-23T07:19:07.141Z,100575.83
2022-10-23T07:22:08.111Z,100575.94
2022-10-23T07:24:58.992Z,100579.61
2022-10-23T07:27:37.275Z,100576.59
2022-10-23T07:30:10.512Z,100573.89
2022-10-23T07:32:50.453Z,100565.63
2022-10-23T07:35:47.448Z,100566.64
2022-10-23T07:38:23.391Z,100569.48
2022-10-23T07:40:59.380Z,100572.92
2022-10-23T07:43:30.251Z,100572.09
2022-10-23T07:46:00.984Z,100568.48
2022-10-23T07:48:37.026Z,100560.58
2022-10-23T07:51:10.740Z,100551.15
2022-10-23T07:53:45.793Z,100556.13
2022-10-23T07:56:39.827Z,100558.75
2022-10-23T07:59:34.567Z,100558.23
2022-10-23T08:02:14.733Z,100555.17
2022-10-23T08:04:45.748Z,100555.16
2022-10-23T08:07:31.702Z,100553.23
2022-10-23T08:10:04.494Z,100556.62
2022-10-23T08:12:35.639Z,100558.55
2022-10-23T08:15:07.396Z,100561.80
2022-10-23T08:17:46.110Z,100558.48
2022-10-23T08:20:20.234Z,100564.02
2022-10-23T08:22:51.981Z,100567.71
2022-10-23T08:25:26.758Z,100563.59
2022-10-23T08:27:57.608Z,100558.72
2022-10-23T08:30:29.221Z,100556.17
2022-10-23T08:33:03.540Z,100550.39
2022-10-23T08:35:36.377Z,100547.80
2022-10-23T08:38:08.192Z,100541.85
2022-10-23T08:40:47.199Z,100540.61
2022-10-23T08:43:42.716Z,100542.58
2022-10-23T08:46:32.463Z,100536.89
2022-10-23T08:49:32.350Z,100533.39
2022-10-23T08:52:22.642Z,100532.37
2022-10-23T08:55:02.044Z,100534.04
2022-10-23T08:57:41.257Z,100530.14
2022-10-23T09:00:19.247Z,100529.79
2022-10-23T09:02:51.771Z,100532.03
2022-10-23T09:05:28.980Z,100538.52
2022-10-23T09:08:12.734Z,100539.80
2022-10-23T09:11:04.427Z,100532.02
2022-10-23T09:13:51.345Z,100519.28
2022-10-23T09:16:33.404Z,100516.24
2022-10-23T09:19:12.141Z,100513.36
2022-10-23T09:21:43.231Z,100507.86
2022-10-23T09:24:18.597Z,100506.79
2022-10-23T09:26:51.865Z,100504.66
2022-10-23T09:29:26.350Z,100493.41
2022-10-23T09:31:59.137Z,100493.08
2022-10-23T09:34:31.314Z,100503.20
2022-10-23T09:37:03.938Z,100509.16
2022-10-23T09:39:36.976Z,100509.79
2022-10-23T09:42:24.664Z,100510.27
2022-10-23T09:44:57.565Z,100508.64
2022-10-23T09:47:28.631Z,100511.93
2022-10-23T09:49:59.632Z,100510.20
2022-10-23T09:52:38.186Z,100515.21
2022-10-23T09:55:23.290Z,100512.86
2022-10-23T09:57:54.990Z,100512.73
2022-10-23T10:00:27.870Z,100508.66
2022-10-23T10:03:01.278Z,100511.12
2022-10-23T10:05:43.942Z,100508.11
2022-10-23T10:08:27.325Z,100508.20
2022-10-23T10:11:02.454Z,100507.25
2022-10-23T10:13:47.623Z,100495.52
2022-10-23T10:16:28.565Z,100495.70
2022-10-23T10:19:11.290Z,100497.53
2022-10-23T10:21:47.491Z,100494.80
2022-10-23T10:24:23.603Z,100487.13
2022-10-23T10:27:02.894Z,100480.54
2022-10-23T10:29:47.956Z,100479.99
2022-10-23T10:32:32.335Z,100472.49
2022-10-23T10:35:17.404Z,100473.92
2022-10-23T10:38:03.064Z,100475.70
2022-10-23T10:40:37.319Z,100473.05
2022-10-23T10:43:25.452Z,100473.93
2022-10-23T10:46:05.649Z,100470.91
2022-10-23T10:48:48.294Z,100463.59
2022-10-23T10:51:37.972Z,100462.83
2022-10-23T10:54:22.620Z,100455.45
2022-10-23T10:56:55.057Z,100456.87
2022-10-23T10:59:29.535Z,100450.95
2022-10-23T11:02:06.869Z,100442.75
2022-10-23T11:04:42.233Z,100443.06
2022-10-23T11:07:16.549Z,100431.98
2022-10-23T11:09:47.497Z,100434.52
2022-10-23T11:12:21.869Z,100428.16
2022-10-23T11:14:52.980Z,100426.67
2022-10-23T11:17:29.850Z,100421.30
2022-10-23T11:20:06.118Z,100425.30
2022-10-23T11:22:44.301Z,100421.11
2022-10-23T11:25:42.075Z,100423.40
2022-10-23T11:28:28.654Z,100420.31
2022-10-23T11:31:17.319Z,100410.05
2022-10-23T11:34:23.204Z,100406.48
2022-10-23T11:36:56.707Z,100402.68
2022-10-23T11:39:30.141Z,100400.79
2022-10-23T11:42:30.801Z,100402.86
2022-10-23T11:45:01.475Z,100397.96
2022-10-23T11:47:40.040Z,100395.91
2022-10-23T11:50:26.820Z,100390.29
2022-10-23T11:53:14.584Z,100388.73
2022-10-23T11:56:04.398Z,100389.19
2022-10-23T11:58:47.943Z,100381.92
2022-10-23T12:01:30.486Z,100377.75
2022-10-23T12:04:04.733Z,100374.95
2022-10-23T12:06:42.666Z,100376.07
2022-10-23T12:09:26.998Z,100374.07
2022-10-23T12:12:17.728Z,100369.96
2022-10-23T12:14:50.312Z,100377.14
2022-10-23T12:17:44.992Z,100373.86
2022-10-23T12:20:26.762Z,100371.44
2022-10-23T12:23:16.012Z,100365.89
2022-10-23T12:26:05.909Z,100360.58
2022-10-23T12:28:42.487Z,100359.16
2022-10-23T12:31:28.788Z,100349.55
2022-10-23T12:34:09.254Z,100347.18
2022-10-23T12:37:03.627Z,100339.11
2022-10-23T12:39:36.504Z,100336.36
2022-10-23T12:42:15.454Z,100327.30
2022-10-23T12:44:46.169Z,100323.33
2022-10-23T12:47:19.770Z,100317.21
2022-10-23T12:49:53.057Z,100309.12
2022-10-23T12:52:25.324Z,100308.13
2022-10-23T12:54:55.950Z,100306.57
2022-10-23T12:57:30.154Z,100297.79
2022-10-23T13:00:06.156Z,100301.61
2022-10-23T13:02:37.515Z,100299.24
2022-10-23T13:05:13.625Z,100295.30
2022-10-23T13:07:47.528Z,100294.11
2022-10-23T13:10:22.617Z,100289.19
2022-10-23T13:13:03.698Z,100285.31
2022-10-23T13:15:42.009Z,100281.02
2022-10-23T13:18:14.232Z,100281.60
2022-10-23T13:20:56.816Z,100279.52
2022-10-23T13:23:32.470Z,100275.91
2022-10-23T13:26:05.347Z,100280.25
2022-10-23T13:28:42.940Z,100271.00
2022-10-23T13:31:32.879Z,100271.70
2022-10-23T13:34:31.677Z,100265.08
2022-10-23T13:37:05.131Z,100264.83
2022-10-23T13:39:36.880Z,100267.30
2022-10-23T13:42:15.996Z,100265.66
2022-10-23T13:44:47.439Z,100264.86
2022-10-23T13:47:20.114Z,100273.13
2022-10-23T13:49:50.842Z,100265.78
2022-10-23T13:52:24.396Z,100267.34
2022-10-23T13:54:55.168Z,100265.50
2022-10-23T13:57:25.711Z,100261.34
2022-10-23T13:59:56.404Z,100259.36
2022-10-23T14:02:27.151Z,100263.71
2022-10-23T14:04:57.986Z,100263.41
2022-10-23T14:07:28.687Z,100266.45
2022-10-23T14:09:59.573Z,100265.11
2022-10-23T14:12:30.293Z,100261.55
2022-10-23T14:15:01.238Z,100256.06
2022-10-23T14:17:31.917Z,100254.95
2022-10-23T14:20:05.161Z,100251.86
2022-10-23T14:22:36.626Z,100247.27
2022-10-23T14:25:08.843Z,100239.75
2022-10-23T14:27:39.499Z,100232.85
2022-10-23T14:30:12.414Z,100229.85
2022-10-23T14:32:44.178Z,100228.30
2022-10-23T14:35:15.469Z,100229.25
2022-10-23T14:37:46.455Z,100225.36
2022-10-23T14:40:17.531Z,100219.20
2022-10-23T14:42:48.489Z,100214.77
2022-10-23T14:45:19.672Z,100215.10
2022-10-23T14:47:50.550Z,100215.38
2022-10-23T14:50:21.240Z,100213.71
2022-10-23T14:52:51.905Z,100216.83
2022-10-23T14:55:22.831Z,100210.98
2022-10-23T14:57:57.497Z,100215.42
2022-10-23T15:00:28.973Z,100209.60
2022-10-23T15:02:59.705Z,100204.67
2022-10-23T15:05:30.582Z,100199.02
2022-10-23T15:08:01.759Z,100190.33
2022-10-23T15:10:32.425Z,100184.73
2022-10-23T15:13:03.186Z,100176.74
2022-10-23T15:15:33.756Z,100180.36
2022-10-23T15:18:04.600Z,100183.80
2022-10-23T15:20:35.339Z,100185.23
2022-10-23T15:23:06.356Z,100181.36
2022-10-23T15:25:37.208Z,100184.84
2022-10-23T15:28:07.807Z,100193.30
2022-10-23T15:30:43.475Z,100194.55
2022-10-23T15:33:19.119Z,100192.59
2022-10-23T15:35:51.363Z,100185.70
2022-10-23T15:38:22.607Z,100179.28
2022-10-23T15:40:55.180Z,100178.08
2022-10-23T15:43:25.771Z,100176.02
2022-10-23T15:45:56.508Z,100176.48
2022-10-23T15:48:27.187Z,100171.70
2022-10-23T15:50:59.241Z,100174.18
2022-10-23T15:53:29.937Z,100176.01
2022-10-23T15:56:00.619Z,100180.66
2022-10-23T15:58:31.244Z,100185.55
2022-10-23T16:01:06.422Z,100178.75
2022-10-23T16:03:38.700Z,100168.88
2022-10-23T16:06:11.684Z,100161.86
2022-10-23T16:08:43.903Z,100164.80
2022-10-23T16:11:18.946Z,100164.78
2022-10-23T16:13:49.876Z,100163.52
2022-10-23T16:16:21.274Z,100163.73
2022-10-23T16:18:52.498Z,100159.09
2022-10-23T16:21:25.154Z,100151.45
2022-10-23T16:23:59.385Z,100158.80
2022-10-23T16:26:31.002Z,100158.86
2022-10-23T16:29:03.498Z,100153.60
2022-10-23T16:31:35.493Z,100154.33
2022-10-23T16:34:07.205Z,100150.13
2022-10-23T16:36:39.763Z,100145.38
2022-10-23T16:39:26.259Z,100144.33
2022-10-23T16:42:15.792Z,100145.85
2022-10-23T16:45:05.572Z,100146.07
2022-10-23T16:47:37.024Z,100141.26
2022-10-23T16:50:09.092Z,100131.02
2022-10-23T16:52:39.931Z,100132.86
2022-10-23T16:55:12.131Z,100133.77
2022-10-23T16:57:42.980Z,100129.52
2022-10-23T17:00:14.831Z,100132.34
2022-10-23T17:02:45.715Z,100125.91
2022-10-23T17:05:16.792Z,100125.47
2022-10-23T17:07:47.450Z,100124.20
2022-10-23T17:10:18.403Z,100120.15
2022-10-23T17:12:50.119Z,100117.77
2022-10-23T17:15:21.327Z,100117.55
2022-10-23T17:17:52.166Z,100113.30
2022-10-23T17:20:23.099Z,100111.63
2022-10-23T17:22:53.875Z,100103.94
2022-10-23T17:25:26.148Z,100100.73
2022-10-23T17:27:55.349Z,100103.23
2022-10-23T17:30:26.141Z,100099.61
2022-10-23T17:32:59.497Z,100097.52
2022-10-23T17:35:32.664Z,100095.08
2022-10-23T17:38:03.538Z,100097.54
2022-10-23T17:40:34.851Z,100102.02
2022-10-23T17:43:05.678Z,100102.82
2022-10-23T17:45:40.311Z,100098.02
2022-10-23T17:48:11.712Z,100093.85
2022-10-23T17:50:42.561Z,100087.98
2022-10-23T17:53:13.424Z,100077.98
2022-10-23T17:55:44.642Z,100068.61
2022-10-23T17:58:15.480Z,100061.52
2022-10-23T18:00:46.129Z,100057.77
2022-10-23T18:03:19.732Z,100061.98
2022-10-23T18:05:50.874Z,100067.41
2022-10-23T18:08:21.535Z,100068.02
2022-10-23T18:10:52.334Z,100060.00
2022-10-23T18:13:23.094Z,100061.79
2022-10-23T18:15:53.904Z,100059.59
2022-10-23T18:18:24.619Z,100055.96
2022-10-23T18:20:55.226Z,100061.92
2022-10-23T18:23:26.546Z,100051.57
2022-10-23T18:25:58.979Z,100045.48
2022-10-23T18:28:28.789Z,100040.70
2022-10-23T18:30:59.497Z,100037.28
2022-10-23T18:33:30.164Z,100033.75
2022-10-23T18:36:00.908Z,100022.73
2022-10-23T18:38:31.702Z,100020.86
2022-10-23T18:41:02.372Z,100019.09
2022-10-23T18:43:43.354Z,100019.96
2022-10-23T18:46:15.155Z,100014.09
2022-10-23T18:48:46.570Z,100018.19
2022-10-23T18:51:19.870Z,100014.98
2022-10-23T18:53:50.790Z,100007.02
2022-10-23T18:56:24.537Z,99997.48
2022-10-23T18:58:57.199Z,99984.45
2022-10-23T19:01:27.890Z,99977.89
2022-10-23T19:04:00.895Z,99979.44
2022-10-23T19:06:33.303Z,99979.58
2022-10-23T19:09:11.192Z,99989.30
2022-10-23T19:11:42.215Z,99996.79
2022-10-23T19:14:15.843Z,99995.88
2022-10-23T19:16:54.199Z,100000.81
2022-10-23T19:19:28.133Z,100014.17
2022-10-23T19:21:59.402Z,100009.56
2022-10-23T19:24:37.901Z,100010.89
2022-10-23T19:27:09.946Z,100003.42
2022-10-23T19:29:44.386Z,99994.38
2022-10-23T19:32:15.930Z,99985.27
2022-10-23T19:34:47.007Z,99981.16
2022-10-23T19:37:17.908Z,99977.15
2022-10-23T19:39:48.642Z,99971.66
2022-10-23T19:42:19.429Z,99974.52
2022-10-23T19:44:50.104Z,99974.16
2022-10-23T19:47:20.945Z,99973.15
2022-10-23T19:49:53.089Z,99969.86
2022-10-23T19:52:26.446Z,99957.60
2022-10-23T19:54:57.302Z,99949.15
2022-10-23T19:57:30.387Z,99949.13
2022-10-23T20:00:02.133Z,99938.05
2022-10-23T20:02:55.287Z,99936.99
2022-10-23T20:05:26.400Z,99923.55
2022-10-23T20:07:58.648Z,99928.98
2022-10-23T20:10:30.119Z,99927.02
2022-10-23T20:13:18.864Z,99926.02
2022-10-23T20:15:51.331Z,99928.45
2022-10-23T20:18:21.970Z,99922.23
2022-10-23T20:20:52.907Z,99912.12
2022-10-23T20:23:23.565Z,99904.48
2022-10-23T20:25:54.702Z,99905.53
2022-10-23T20:28:25.307Z,99909.52
2022-10-23T20:30:56.020Z,99907.46
2022-10-23T20:33:26.647Z,99915.64
2022-10-23T20:35:57.270Z,99913.56
2022-10-23T20:38:28.251Z,99903.45
2022-10-23T20:41:04.096Z,99895.63
2022-10-23T20:43:35.181Z,99897.61
2022-10-23T20:46:08.808Z,99888.85
2022-10-23T20:48:40.468Z,99889.66
2022-10-23T20:51:13.275Z,99891.34
2022-10-23T20:53:45.167Z,99892.13
2022-10-23T20:56:19.808Z,99900.95
2022-10-23T20:58:50.486Z,99909.63
2022-10-23T21:01:21.553Z,99920.25
2022-10-23T21:03:56.092Z,99928.04
2022-10-23T21:06:31.540Z,99933.39
2022-10-23T21:09:08.636Z,99940.91
2022-10-23T21:11:40.028Z,99939.29
2022-10-23T21:14:10.856Z,99920.49
2022-10-23T21:16:44.633Z,99937.54
2022-10-23T21:19:16.951Z,99937.75
2022-10-23T21:21:47.757Z,99942.75
2022-10-23T21:24:19.231Z,99945.08
2022-10-23T21:26:50.217Z,99962.80
2022-10-23T21:29:21.126Z,99981.69
2022-10-23T21:31:56.782Z,99993.99
2022-10-23T21:34:27.756Z,100007.05
2022-10-23T21:37:14.656Z,100028.77
2022-10-23T21:39:47.073Z,100034.95
2022-10-23T21:42:17.815Z,100044.93
2022-10-23T21:44:48.763Z,100050.25
2022-10-23T21:47:19.469Z,100069.10
2022-10-23T21:49:50.228Z,100068.30
2022-10-23T21:52:20.955Z,100069.39
2022-10-23T21:54:55.883Z,100078.06
2022-10-23T21:57:26.558Z,100083.95
2022-10-23T21:59:58.371Z,100085.63
2022-10-23T22:02:29.171Z,100071.73
2022-10-23T22:05:00.011Z,100050.53
2022-10-23T22:07:30.617Z,100064.67
2022-10-23T22:10:01.445Z,100071.45
2022-10-23T22:12:32.139Z,100073.11
2022-10-23T22:15:02.883Z,100082.27
2022-10-23T22:17:33.589Z,100091.81
2022-10-23T22:20:04.735Z,100087.73
2022-10-23T22:22:35.123Z,100099.20
2022-10-23T22:25:06.783Z,100108.31
2022-10-23T22:27:38.025Z,100104.56
2022-10-23T22:30:10.004Z,100091.92
2022-10-23T22:32:40.788Z,100082.41
2022-10-23T22:35:12.165Z,100067.65
2022-10-23T22:37:42.949Z,100058.77
2022-10-23T22:40:15.216Z,100050.60
2022-10-23T22:42:45.935Z,100044.23
2022-10-23T22:45:17.099Z,100032.48
2022-10-23T22:47:48.101Z,100026.87
2022-10-23T22:50:18.981Z,100025.52
2022-10-23T22:52:49.584Z,100028.80
2022-10-23T22:55:20.630Z,100032.06
2022-10-23T22:57:51.233Z,100026.91
2022-10-23T23:00:22.293Z,100028.85
2022-10-23T23:02:53.081Z,100034.66
2022-10-23T23:05:24.007Z,100032.85
2022-10-23T23:07:54.779Z,100035.45
2022-10-23T23:10:25.641Z,100036.27
2022-10-23T23:12:56.287Z,100038.95
2022-10-23T23:15:27.957Z,100049.30
2022-10-23T23:17:58.919Z,100041.55
2022-10-23T23:20:29.635Z,100013.05
2022-10-23T23:23:00.343Z,100001.16
2022-10-23T23:25:31.137Z,100019.88
2022-10-23T23:28:01.857Z,100021.66
2022-10-23T23:30:32.482Z,100017.97
2022-10-23T23:33:08.122Z,100019.89
2022-10-23T23:36:01.698Z,100025.20
2022-10-23T23:38:35.306Z,100022.21
2022-10-23T23:41:07.278Z,100021.31
2022-10-23T23:43:38.059Z,100019.95
2022-10-23T23:46:09.196Z,100029.33
2022-10-23T23:48:40.276Z,100034.89
2022-10-23T23:51:10.971Z,100032.92
2022-10-23T23:53:41.611Z,100027.51
2022-10-23T23:56:12.358Z,100020.17
2022-10-23T23:58:43.427Z,100013.02
